sensor_id;sensor_type;location;lat;lon;timestamp;pressure;altitude;pressure_sealevel;temperature
69785;BMP280;14177;51.520;6.764;2023-02-03T00:01:33;102259.41;;;9.42
69785;BMP280;14177;51.520;6.764;2023-02-03T00:04:47;102252.50;;;9.41
69785;BMP280;14177;51.520;6.764;2023-02-03T00:12:48;102254.22;;;9.45
69785;BMP280;14177;51.520;6.764;2023-02-03T00:22:00;102224.84;;;9.37
69785;BMP280;14177;51.520;6.764;2023-02-03T00:25:26;102230.00;;;9.40
69785;BMP280;14177;51.520;6.764;2023-02-03T00:42:57;102247.31;;;9.41
69785;BMP280;14177;51.520;6.764;2023-02-03T00:45:43;102249.03;;;9.45
69785;BMP280;14177;51.520;6.764;2023-02-03T00:48:44;102247.31;;;9.41
69785;BMP280;14177;51.520;6.764;2023-02-03T00:52:12;102239.50;;;9.43
69785;BMP280;14177;51.520;6.764;2023-02-03T00:55:36;102257.66;;;9.40
69785;BMP280;14177;51.520;6.764;2023-02-03T01:02:40;102285.31;;;9.50
69785;BMP280;14177;51.520;6.764;2023-02-03T01:05:46;102276.63;;;9.52
69785;BMP280;14177;51.520;6.764;2023-02-03T01:08:30;102293.94;;;9.56
69785;BMP280;14177;51.520;6.764;2023-02-03T01:11:26;102285.28;;;9.51
69785;BMP280;14177;51.520;6.764;2023-02-03T01:14:57;102299.13;;;9.50
69785;BMP280;14177;51.520;6.764;2023-02-03T01:17:45;102290.47;;;9.54
69785;BMP280;14177;51.520;6.764;2023-02-03T01:21:10;102285.28;;;9.54
69785;BMP280;14177;51.520;6.764;2023-02-03T01:24:09;102297.38;;;9.61
69785;BMP280;14177;51.520;6.764;2023-02-03T01:31:20;102299.09;;;9.59
69785;BMP280;14177;51.520;6.764;2023-02-03T01:34:42;102295.66;;;9.60
69785;BMP280;14177;51.520;6.764;2023-02-03T01:37:44;102303.44;;;9.60
69785;BMP280;14177;51.520;6.764;2023-02-03T01:51:09;102280.06;;;9.66
69785;BMP280;14177;51.520;6.764;2023-02-03T01:53:54;102295.66;;;9.64
69785;BMP280;14177;51.520;6.764;2023-02-03T01:56:53;102298.25;;;9.62
69785;BMP280;14177;51.520;6.764;2023-02-03T01:59:34;102296.50;;;9.62
69785;BMP280;14177;51.520;6.764;2023-02-03T02:02:32;102280.06;;;9.60
69785;BMP280;14177;51.520;6.764;2023-02-03T02:06:03;102264.50;;;9.63
69785;BMP280;14177;51.520;6.764;2023-02-03T02:09:12;102255.00;;;9.63
69785;BMP280;14177;51.520;6.764;2023-02-03T02:11:54;102254.97;;;9.65
69785;BMP280;14177;51.520;6.764;2023-02-03T02:14:43;102260.19;;;9.63
69785;BMP280;14177;51.520;6.764;2023-02-03T02:17:52;102247.22;;;9.59
69785;BMP280;14177;51.520;6.764;2023-02-03T02:20:59;102246.34;;;9.57
69785;BMP280;14177;51.520;6.764;2023-02-03T02:34:00;102237.72;;;9.60
69785;BMP280;14177;51.520;6.764;2023-02-03T02:37:13;102228.19;;;9.54
69785;BMP280;14177;51.520;6.764;2023-02-03T02:40:24;102221.25;;;9.62
69785;BMP280;14177;51.520;6.764;2023-02-03T02:43:28;102230.78;;;9.59
69785;BMP280;14177;51.520;6.764;2023-02-03T02:46:43;102202.25;;;9.54
69785;BMP280;14177;51.520;6.764;2023-02-03T02:49:34;102207.44;;;9.54
69785;BMP280;14177;51.520;6.764;2023-02-03T02:52:06;102204.84;;;9.54
69785;BMP280;14177;51.520;6.764;2023-02-03T02:54:44;102191.03;;;9.52
69785;BMP280;14177;51.520;6.764;2023-02-03T02:57:25;102204.00;;;9.52
69785;BMP280;14177;51.520;6.764;2023-02-03T02:59:56;102212.66;;;9.51
69785;BMP280;14177;51.520;6.764;2023-02-03T03:02:35;102212.66;;;9.48
69785;BMP280;14177;51.520;6.764;2023-02-03T03:05:11;102213.50;;;9.50
69785;BMP280;14177;51.520;6.764;2023-02-03T03:08:00;102246.41;;;9.50
69785;BMP280;14177;51.520;6.764;2023-02-03T03:10:36;102235.13;;;9.49
69785;BMP280;14177;51.520;6.764;2023-02-03T03:13:12;102248.13;;;9.51
69785;BMP280;14177;51.520;6.764;2023-02-03T03:15:46;102229.09;;;9.50
69785;BMP280;14177;51.520;6.764;2023-02-03T03:18:53;102217.84;;;9.56
69785;BMP280;14177;51.520;6.764;2023-02-03T03:21:45;102218.69;;;9.53
69785;BMP280;14177;51.520;6.764;2023-02-03T03:24:33;102220.41;;;9.57
69785;BMP280;14177;51.520;6.764;2023-02-03T03:27:30;102223.00;;;9.54
69785;BMP280;14177;51.520;6.764;2023-02-03T03:30:25;102225.63;;;9.51
69785;BMP280;14177;51.520;6.764;2023-02-03T03:33:10;102220.44;;;9.50
69785;BMP280;14177;51.520;6.764;2023-02-03T03:39:54;102223.03;;;9.51
69785;BMP280;14177;51.520;6.764;2023-02-03T03:43:27;102218.69;;;9.53
69785;BMP280;14177;51.520;6.764;2023-02-03T03:50:06;102216.94;;;9.61
69785;BMP280;14177;51.520;6.764;2023-02-03T03:53:23;102209.16;;;9.58
69785;BMP280;14177;51.520;6.764;2023-02-03T03:57:12;102215.19;;;9.60
69785;BMP280;14177;51.520;6.764;2023-02-03T04:06:39;102226.47;;;9.56
69785;BMP280;14177;51.520;6.764;2023-02-03T04:09:27;102235.97;;;9.60
69785;BMP280;14177;51.520;6.764;2023-02-03T04:12:29;102228.19;;;9.60
69785;BMP280;14177;51.520;6.764;2023-02-03T04:15:27;102216.94;;;9.63
69785;BMP280;14177;51.520;6.764;2023-02-03T04:18:21;102203.94;;;9.61
69785;BMP280;14177;51.520;6.764;2023-02-03T04:21:04;102198.78;;;9.58
69785;BMP280;14177;51.520;6.764;2023-02-03T04:24:01;102210.03;;;9.62
69785;BMP280;14177;51.520;6.764;2023-02-03T04:26:57;102219.47;;;9.70
69785;BMP280;14177;51.520;6.764;2023-02-03T04:29:41;102216.91;;;9.64
69785;BMP280;14177;51.520;6.764;2023-02-03T04:32:28;102224.69;;;9.64
69785;BMP280;14177;51.520;6.764;2023-02-03T04:35:52;102216.91;;;9.67
69785;BMP280;14177;51.520;6.764;2023-02-03T04:38:40;102216.06;;;9.62
69785;BMP280;14177;51.520;6.764;2023-02-03T04:41:56;102212.63;;;9.57
69785;BMP280;14177;51.520;6.764;2023-02-03T04:44:45;102221.25;;;9.66
69785;BMP280;14177;51.520;6.764;2023-02-03T04:48:00;102196.13;;;9.67
69785;BMP280;14177;51.520;6.764;2023-02-03T04:51:10;102191.81;;;9.66
69785;BMP280;14177;51.520;6.764;2023-02-03T04:53:56;102196.16;;;9.65
69785;BMP280;14177;51.520;6.764;2023-02-03T05:00:48;102174.56;;;9.61
69785;BMP280;14177;51.520;6.764;2023-02-03T05:04:21;102172.81;;;9.58
69785;BMP280;14177;51.520;6.764;2023-02-03T05:08:07;102184.91;;;9.62
69785;BMP280;14177;51.520;6.764;2023-02-03T05:29:43;102198.75;;;9.64
69785;BMP280;14177;51.520;6.764;2023-02-03T05:38:47;102189.22;;;9.69
69785;BMP280;14177;51.520;6.764;2023-02-03T05:41:53;102190.94;;;9.70
69785;BMP280;14177;51.520;6.764;2023-02-03T05:51:05;102189.19;;;9.72
69785;BMP280;14177;51.520;6.764;2023-02-03T05:54:01;102189.19;;;9.72
69785;BMP280;14177;51.520;6.764;2023-02-03T05:56:58;102202.16;;;9.75
69785;BMP280;14177;51.520;6.764;2023-02-03T06:00:09;102182.28;;;9.72
69785;BMP280;14177;51.520;6.764;2023-02-03T06:03:35;102192.66;;;9.72
69785;BMP280;14177;51.520;6.764;2023-02-03T06:06:47;102192.66;;;9.75
69785;BMP280;14177;51.520;6.764;2023-02-03T06:09:36;102196.13;;;9.71
69785;BMP280;14177;51.520;6.764;2023-02-03T06:12:22;102200.44;;;9.71
69785;BMP280;14177;51.520;6.764;2023-02-03T06:15:29;102196.13;;;9.71
69785;BMP280;14177;51.520;6.764;2023-02-03T06:18:25;102195.22;;;9.80
69785;BMP280;14177;51.520;6.764;2023-02-03T06:20:56;102195.22;;;9.77
69785;BMP280;14177;51.520;6.764;2023-02-03T06:23:29;102193.50;;;9.76
69785;BMP280;14177;51.520;6.764;2023-02-03T06:26:00;102193.50;;;9.76
69785;BMP280;14177;51.520;6.764;2023-02-03T06:28:29;102201.28;;;9.77
69785;BMP280;14177;51.520;6.764;2023-02-03T06:31:03;102200.41;;;9.77
69785;BMP280;14177;51.520;6.764;2023-02-03T06:33:31;102197.84;;;9.75
69785;BMP280;14177;51.520;6.764;2023-02-03T06:35:59;102197.81;;;9.77
69785;BMP280;14177;51.520;6.764;2023-02-03T06:38:26;102194.38;;;9.72
69785;BMP280;14177;51.520;6.764;2023-02-03T06:40:53;102201.25;;;9.82
69785;BMP280;14177;51.520;6.764;2023-02-03T06:43:20;102200.34;;;9.84
69785;BMP280;14177;51.520;6.764;2023-02-03T06:45:50;102191.75;;;9.81
69785;BMP280;14177;51.520;6.764;2023-02-03T06:48:20;102206.47;;;9.80
69785;BMP280;14177;51.520;6.764;2023-02-03T06:50:54;102197.81;;;9.80
69785;BMP280;14177;51.520;6.764;2023-02-03T06:53:28;102209.03;;;9.82
69785;BMP280;14177;51.520;6.764;2023-02-03T06:55:55;102202.09;;;9.84
69785;BMP280;14177;51.520;6.764;2023-02-03T06:58:34;102201.22;;;9.83
69785;BMP280;14177;51.520;6.764;2023-02-03T07:01:12;102196.06;;;9.82
69785;BMP280;14177;51.520;6.764;2023-02-03T07:10:11;102204.75;;;9.79
69785;BMP280;14177;51.520;6.764;2023-02-03T07:12:53;102197.81;;;9.81
69785;BMP280;14177;51.520;6.764;2023-02-03T07:15:20;102198.63;;;9.85
69785;BMP280;14177;51.520;6.764;2023-02-03T07:17:47;102202.09;;;9.85
69785;BMP280;14177;51.520;6.764;2023-02-03T07:20:22;102200.38;;;9.86
69785;BMP280;14177;51.520;6.764;2023-02-03T07:22:52;102206.44;;;9.85
69785;BMP280;14177;51.520;6.764;2023-02-03T07:25:20;102205.56;;;9.86
69785;BMP280;14177;51.520;6.764;2023-02-03T07:27:50;102204.72;;;9.82
69785;BMP280;14177;51.520;6.764;2023-02-03T07:30:17;102208.16;;;9.83
69785;BMP280;14177;51.520;6.764;2023-02-03T07:32:50;102196.06;;;9.82
69785;BMP280;14177;51.520;6.764;2023-02-03T07:35:18;102197.84;;;9.78
69785;BMP280;14177;51.520;6.764;2023-02-03T07:37:48;102200.41;;;9.80
69785;BMP280;14177;51.520;6.764;2023-02-03T07:40:15;102209.06;;;9.76
69785;BMP280;14177;51.520;6.764;2023-02-03T07:42:47;102210.78;;;9.80
69785;BMP280;14177;51.520;6.764;2023-02-03T07:45:18;102222.88;;;9.81
69785;BMP280;14177;51.520;6.764;2023-02-03T07:47:46;102209.91;;;9.84
69785;BMP280;14177;51.520;6.764;2023-02-03T07:50:15;102220.25;;;9.85
69785;BMP280;14177;51.520;6.764;2023-02-03T07:52:51;102228.06;;;9.84
69785;BMP280;14177;51.520;6.764;2023-02-03T07:55:21;102224.63;;;9.82
69785;BMP280;14177;51.520;6.764;2023-02-03T07:57:48;102222.88;;;9.81
69785;BMP280;14177;51.520;6.764;2023-02-03T08:00:17;102215.97;;;9.83
69785;BMP280;14177;51.520;6.764;2023-02-03T08:02:45;102209.03;;;9.85
69785;BMP280;14177;51.520;6.764;2023-02-03T08:05:14;102232.38;;;9.85
69785;BMP280;14177;51.520;6.764;2023-02-03T08:07:45;102226.31;;;9.86
69785;BMP280;14177;51.520;6.764;2023-02-03T08:10:14;102219.44;;;9.82
69785;BMP280;14177;51.520;6.764;2023-02-03T08:12:47;102231.53;;;9.80
69785;BMP280;14177;51.520;6.764;2023-02-03T08:15:29;102222.03;;;9.80
69785;BMP280;14177;51.520;6.764;2023-02-03T08:18:02;102222.84;;;9.87
69785;BMP280;14177;51.520;6.764;2023-02-03T08:20:33;102222.88;;;9.84
69785;BMP280;14177;51.520;6.764;2023-02-03T08:23:02;102233.22;;;9.88
69785;BMP280;14177;51.520;6.764;2023-02-03T08:25:52;102245.34;;;9.91
69785;BMP280;14177;51.520;6.764;2023-02-03T08:28:29;102247.03;;;9.98
69785;BMP280;14177;51.520;6.764;2023-02-03T08:31:00;102242.72;;;10.00
69785;BMP280;14177;51.520;6.764;2023-02-03T08:33:51;102235.78;;;9.96
69785;BMP280;14177;51.520;6.764;2023-02-03T08:36:42;102235.78;;;10.02
69785;BMP280;14177;51.520;6.764;2023-02-03T08:39:51;102230.56;;;10.06
69785;BMP280;14177;51.520;6.764;2023-02-03T08:42:19;102238.31;;;10.09
69785;BMP280;14177;51.520;6.764;2023-02-03T08:44:53;102244.41;;;10.07
69785;BMP280;14177;51.520;6.764;2023-02-03T08:50:55;102245.28;;;10.06
69785;BMP280;14177;51.520;6.764;2023-02-03T08:53:45;102248.75;;;10.08
69785;BMP280;14177;51.520;6.764;2023-02-03T08:56:33;102255.66;;;10.12
69785;BMP280;14177;51.520;6.764;2023-02-03T08:59:02;102239.19;;;10.13
69785;BMP280;14177;51.520;6.764;2023-02-03T09:01:35;102236.59;;;10.11
69785;BMP280;14177;51.520;6.764;2023-02-03T09:04:13;102240.03;;;10.13
69785;BMP280;14177;51.520;6.764;2023-02-03T09:06:40;102243.44;;;10.23
69785;BMP280;14177;51.520;6.764;2023-02-03T09:09:13;102246.94;;;10.17
69785;BMP280;14177;51.520;6.764;2023-02-03T09:12:23;102263.41;;;10.18
69785;BMP280;14177;51.520;6.764;2023-02-03T09:14:51;102252.97;;;10.21
69785;BMP280;14177;51.520;6.764;2023-02-03T09:17:18;102252.09;;;10.22
69785;BMP280;14177;51.520;6.764;2023-02-03T09:19:46;102265.06;;;10.26
69785;BMP280;14177;51.520;6.764;2023-02-03T09:22:16;102251.19;;;10.30
69785;BMP280;14177;51.520;6.764;2023-02-03T09:24:43;102263.28;;;10.31
69785;BMP280;14177;51.520;6.764;2023-02-03T09:27:10;102263.28;;;10.34
69785;BMP280;14177;51.520;6.764;2023-02-03T09:29:42;102266.72;;;10.36
69785;BMP280;14177;51.520;6.764;2023-02-03T09:32:11;102260.69;;;10.30
69785;BMP280;14177;51.520;6.764;2023-02-03T09:34:41;102266.72;;;10.36
69785;BMP280;14177;51.520;6.764;2023-02-03T09:37:11;102273.63;;;10.39
69785;BMP280;14177;51.520;6.764;2023-02-03T09:39:39;102264.09;;;10.38
69785;BMP280;14177;51.520;6.764;2023-02-03T09:45:25;102265.84;;;10.36
69785;BMP280;14177;51.520;6.764;2023-02-03T09:48:33;102265.00;;;10.35
69785;BMP280;14177;51.520;6.764;2023-02-03T09:51:02;102277.94;;;10.40
69785;BMP280;14177;51.520;6.764;2023-02-03T09:53:41;102271.84;;;10.44
69785;BMP280;14177;51.520;6.764;2023-02-03T09:56:26;102262.34;;;10.40
69785;BMP280;14177;51.520;6.764;2023-02-03T09:58:59;102258.06;;;10.37
69785;BMP280;14177;51.520;6.764;2023-02-03T10:01:54;102255.44;;;10.40
69785;BMP280;14177;51.520;6.764;2023-02-03T10:04:40;102262.34;;;10.44
69785;BMP280;14177;51.520;6.764;2023-02-03T10:07:30;102273.56;;;10.48
69785;BMP280;14177;51.520;6.764;2023-02-03T10:18:55;102268.31;;;10.57
69785;BMP280;14177;51.520;6.764;2023-02-03T10:22:13;102271.78;;;10.53
69785;BMP280;14177;51.520;6.764;2023-02-03T10:27:23;102283.06;;;10.52
69785;BMP280;14177;51.520;6.764;2023-02-03T10:32:59;102275.28;;;10.50
69785;BMP280;14177;51.520;6.764;2023-02-03T10:36:09;102282.22;;;10.51
69785;BMP280;14177;51.520;6.764;2023-02-03T10:41:39;102288.31;;;10.46
69785;BMP280;14177;51.520;6.764;2023-02-03T10:44:12;102275.28;;;10.53
69785;BMP280;14177;51.520;6.764;2023-02-03T10:46:41;102282.22;;;10.50
69785;BMP280;14177;51.520;6.764;2023-02-03T10:49:15;102274.44;;;10.47
69785;BMP280;14177;51.520;6.764;2023-02-03T10:51:50;102270.91;;;10.57
69785;BMP280;14177;51.520;6.764;2023-02-03T10:54:34;102263.88;;;10.66
69785;BMP280;14177;51.520;6.764;2023-02-03T10:57:11;102264.78;;;10.62
69785;BMP280;14177;51.520;6.764;2023-02-03T10:59:46;102258.72;;;10.62
69785;BMP280;14177;51.520;6.764;2023-02-03T11:02:28;102263.94;;;10.62
69785;BMP280;14177;51.520;6.764;2023-02-03T11:05:19;102273.44;;;10.63
69785;BMP280;14177;51.520;6.764;2023-02-03T11:07:51;102278.63;;;10.64
69785;BMP280;14177;51.520;6.764;2023-02-03T11:10:35;102284.75;;;10.59
69785;BMP280;14177;51.520;6.764;2023-02-03T11:16:17;102290.72;;;10.68
69785;BMP280;14177;51.520;6.764;2023-02-03T11:18:56;102269.94;;;10.65
69785;BMP280;14177;51.520;6.764;2023-02-03T11:21:39;102276.84;;;10.71
69785;BMP280;14177;51.520;6.764;2023-02-03T11:24:26;102291.59;;;10.67
69785;BMP280;14177;51.520;6.764;2023-02-03T11:27:09;102301.13;;;10.68
69785;BMP280;14177;51.520;6.764;2023-02-03T11:29:50;102308.91;;;10.73
69785;BMP280;14177;51.520;6.764;2023-02-03T11:32:22;102299.34;;;10.78
69785;BMP280;14177;51.520;6.764;2023-02-03T11:38:00;102299.38;;;10.72
69785;BMP280;14177;51.520;6.764;2023-02-03T11:40:42;102308.00;;;10.77
69785;BMP280;14177;51.520;6.764;2023-02-03T11:43:17;102291.53;;;10.78
69785;BMP280;14177;51.520;6.764;2023-02-03T11:45:50;102293.25;;;10.79
69785;BMP280;14177;51.520;6.764;2023-02-03T11:49:09;102289.72;;;10.86
69785;BMP280;14177;51.520;6.764;2023-02-03T11:52:28;102298.38;;;10.86
69785;BMP280;14177;51.520;6.764;2023-02-03T11:56:04;102294.91;;;10.88
69785;BMP280;14177;51.520;6.764;2023-02-03T12:07:35;102293.06;;;11.01
69785;BMP280;14177;51.520;6.764;2023-02-03T12:19:44;102309.56;;;10.97
69785;BMP280;14177;51.520;6.764;2023-02-03T12:23:08;102319.97;;;10.94
69785;BMP280;14177;51.520;6.764;2023-02-03T12:26:08;102322.63;;;10.92
69785;BMP280;14177;51.520;6.764;2023-02-03T12:35:22;102319.09;;;10.93
69785;BMP280;14177;51.520;6.764;2023-02-03T12:38:18;102308.69;;;10.93
69785;BMP280;14177;51.520;6.764;2023-02-03T12:41:00;102318.28;;;10.91
69785;BMP280;14177;51.520;6.764;2023-02-03T12:43:45;102307.88;;;10.91
69785;BMP280;14177;51.520;6.764;2023-02-03T12:52:55;102320.81;;;10.97
69785;BMP280;14177;51.520;6.764;2023-02-03T12:55:54;102314.69;;;11.01
69785;BMP280;14177;51.520;6.764;2023-02-03T12:58:45;102316.41;;;11.05
69785;BMP280;14177;51.520;6.764;2023-02-03T13:01:48;102321.56;;;11.13
69785;BMP280;14177;51.520;6.764;2023-02-03T13:05:04;102307.78;;;11.02
69785;BMP280;14177;51.520;6.764;2023-02-03T13:07:47;102312.06;;;11.04
69785;BMP280;14177;51.520;6.764;2023-02-03T13:10:44;102309.44;;;11.09
69785;BMP280;14177;51.520;6.764;2023-02-03T13:13:28;102305.03;;;11.15
69785;BMP280;14177;51.520;6.764;2023-02-03T13:16:05;102308.41;;;11.28
69785;BMP280;14177;51.520;6.764;2023-02-03T13:18:42;102315.38;;;11.24
69785;BMP280;14177;51.520;6.764;2023-02-03T13:21:11;102305.00;;;11.20
69785;BMP280;14177;51.520;6.764;2023-02-03T13:23:42;102299.81;;;11.18
69785;BMP280;14177;51.520;6.764;2023-02-03T13:41:52;102285.13;;;11.13
69785;BMP280;14177;51.520;6.764;2023-02-03T13:44:26;102296.34;;;11.16
69785;BMP280;14177;51.520;6.764;2023-02-03T13:46:57;102302.44;;;11.17
69785;BMP280;14177;51.520;6.764;2023-02-03T13:49:34;102310.16;;;11.26
69785;BMP280;14177;51.520;6.764;2023-02-03T13:52:02;102308.50;;;11.14
69785;BMP280;14177;51.520;6.764;2023-02-03T13:54:42;102296.41;;;11.10
69785;BMP280;14177;51.520;6.764;2023-02-03T13:57:27;102304.31;;;11.03
69785;BMP280;14177;51.520;6.764;2023-02-03T13:59:57;102311.25;;;10.99
69785;BMP280;14177;51.520;6.764;2023-02-03T14:05:39;102344.41;;;10.72
69785;BMP280;14177;51.520;6.764;2023-02-03T14:16:41;102354.38;;;9.89
69785;BMP280;14177;51.520;6.764;2023-02-03T14:22:07;102359.63;;;9.70
69785;BMP280;14177;51.520;6.764;2023-02-03T14:24:48;102366.56;;;9.65
69785;BMP280;14177;51.520;6.764;2023-02-03T14:27:22;102368.28;;;9.63
69785;BMP280;14177;51.520;6.764;2023-02-03T14:30:09;102378.69;;;9.59
69785;BMP280;14177;51.520;6.764;2023-02-03T14:32:53;102390.78;;;9.58
69785;BMP280;14177;51.520;6.764;2023-02-03T14:35:36;102374.38;;;9.56
69785;BMP280;14177;51.520;6.764;2023-02-03T14:38:38;102389.06;;;9.51
69785;BMP280;14177;51.520;6.764;2023-02-03T14:41:53;102401.19;;;9.58
69785;BMP280;14177;51.520;6.764;2023-02-03T14:47:53;102397.72;;;9.62
69785;BMP280;14177;51.520;6.764;2023-02-03T14:53:50;102406.38;;;9.65
69785;BMP280;14177;51.520;6.764;2023-02-03T15:06:02;102419.31;;;9.67
69785;BMP280;14177;51.520;6.764;2023-02-03T15:08:44;102431.47;;;9.66
69785;BMP280;14177;51.520;6.764;2023-02-03T15:14:17;102434.06;;;9.69
69785;BMP280;14177;51.520;6.764;2023-02-03T15:21:44;102446.13;;;9.78
69785;BMP280;14177;51.520;6.764;2023-02-03T15:24:22;102440.94;;;9.75
69785;BMP280;14177;51.520;6.764;2023-02-03T15:26:55;102439.22;;;9.78
69785;BMP280;14177;51.520;6.764;2023-02-03T15:34:35;102447.88;;;9.73
69785;BMP280;14177;51.520;6.764;2023-02-03T15:37:27;102434.03;;;9.71
69785;BMP280;14177;51.520;6.764;2023-02-03T15:40:05;102459.13;;;9.70
69785;BMP280;14177;51.520;6.764;2023-02-03T15:45:43;102444.41;;;9.71
69785;BMP280;14177;51.520;6.764;2023-02-03T15:56:50;102451.34;;;9.67
69785;BMP280;14177;51.520;6.764;2023-02-03T15:59:37;102455.69;;;9.68
69785;BMP280;14177;51.520;6.764;2023-02-03T16:04:51;102470.38;;;9.74
69785;BMP280;14177;51.520;6.764;2023-02-03T16:07:28;102489.41;;;9.76
69785;BMP280;14177;51.520;6.764;2023-02-03T16:09:58;102485.09;;;9.73
69785;BMP280;14177;51.520;6.764;2023-02-03T16:12:33;102492.84;;;9.75
69785;BMP280;14177;51.520;6.764;2023-02-03T16:15:00;102493.72;;;9.74
69785;BMP280;14177;51.520;6.764;2023-02-03T16:17:32;102497.19;;;9.73
69785;BMP280;14177;51.520;6.764;2023-02-03T16:23:00;102501.50;;;9.71
69785;BMP280;14177;51.520;6.764;2023-02-03T16:25:31;102502.38;;;9.70
69785;BMP280;14177;51.520;6.764;2023-02-03T16:33:57;102517.09;;;9.66
69785;BMP280;14177;51.520;6.764;2023-02-03T16:36:48;102517.94;;;9.64
69785;BMP280;14177;51.520;6.764;2023-02-03T16:39:33;102522.28;;;9.65
69785;BMP280;14177;51.520;6.764;2023-02-03T16:42:20;102524.88;;;9.65
69785;BMP280;14177;51.520;6.764;2023-02-03T16:45:14;102520.53;;;9.61
69785;BMP280;14177;51.520;6.764;2023-02-03T16:48:27;102524.00;;;9.63
69785;BMP280;14177;51.520;6.764;2023-02-03T17:43:14;102598.41;;;9.43
69785;BMP280;14177;51.520;6.764;2023-02-03T17:46:07;102598.38;;;9.39
69785;BMP280;14177;51.520;6.764;2023-02-03T18:11:43;102636.41;;;9.29
69785;BMP280;14177;51.520;6.764;2023-02-03T18:14:13;102640.72;;;9.24
69785;BMP280;14177;51.520;6.764;2023-02-03T18:16:42;102636.38;;;9.23
69785;BMP280;14177;51.520;6.764;2023-02-03T18:19:14;102638.97;;;9.20
69785;BMP280;14177;51.520;6.764;2023-02-03T18:21:42;102639.81;;;9.19
69785;BMP280;14177;51.520;6.764;2023-02-03T18:24:12;102639.81;;;9.16
69785;BMP280;14177;51.520;6.764;2023-02-03T18:30:33;102654.47;;;9.11
69785;BMP280;14177;51.520;6.764;2023-02-03T18:33:00;102660.53;;;9.10
69785;BMP280;14177;51.520;6.764;2023-02-03T18:35:27;102655.31;;;9.07
69785;BMP280;14177;51.520;6.764;2023-02-03T18:37:55;102652.72;;;9.04
69785;BMP280;14177;51.520;6.764;2023-02-03T18:40:22;102677.78;;;9.02
69785;BMP280;14177;51.520;6.764;2023-02-03T18:42:49;102670.81;;;8.92
69785;BMP280;14177;51.520;6.764;2023-02-03T18:45:21;102669.94;;;8.93
69785;BMP280;14177;51.520;6.764;2023-02-03T18:47:52;102669.09;;;8.97
69785;BMP280;14177;51.520;6.764;2023-02-03T18:50:19;102667.34;;;8.93
69785;BMP280;14177;51.520;6.764;2023-02-03T18:52:46;102670.78;;;8.88
69785;BMP280;14177;51.520;6.764;2023-02-03T18:55:13;102662.16;;;8.93
69785;BMP280;14177;51.520;6.764;2023-02-03T18:57:40;102665.63;;;8.95
69785;BMP280;14177;51.520;6.764;2023-02-03T19:00:08;102661.31;;;8.97
69785;BMP280;14177;51.520;6.764;2023-02-03T19:02:38;102665.66;;;8.94
69785;BMP280;14177;51.520;6.764;2023-02-03T19:05:06;102660.44;;;8.91
69785;BMP280;14177;51.520;6.764;2023-02-03T19:07:35;102674.28;;;8.94
69785;BMP280;14177;51.520;6.764;2023-02-03T19:10:02;102672.47;;;8.84
69785;BMP280;14177;51.520;6.764;2023-02-03T19:12:29;102674.19;;;8.82
69785;BMP280;14177;51.520;6.764;2023-02-03T19:14:56;102677.66;;;8.84
69785;BMP280;14177;51.520;6.764;2023-02-03T19:17:23;102682.88;;;8.86
69785;BMP280;14177;51.520;6.764;2023-02-03T19:19:51;102694.13;;;8.89
69785;BMP280;14177;51.520;6.764;2023-02-03T19:22:18;102687.19;;;8.85
69785;BMP280;14177;51.520;6.764;2023-02-03T19:24:45;102700.09;;;8.79
69785;BMP280;14177;51.520;6.764;2023-02-03T19:27:12;102705.28;;;8.79
69785;BMP280;14177;51.520;6.764;2023-02-03T19:29:39;102715.66;;;8.73
69785;BMP280;14177;51.520;6.764;2023-02-03T19:32:09;102713.91;;;8.75
69785;BMP280;14177;51.520;6.764;2023-02-03T19:34:38;102716.50;;;8.78
69785;BMP280;14177;51.520;6.764;2023-02-03T19:37:06;102709.59;;;8.76
69785;BMP280;14177;51.520;6.764;2023-02-03T19:39:34;102711.28;;;8.69
69785;BMP280;14177;51.520;6.764;2023-02-03T19:42:01;102718.22;;;8.73
69785;BMP280;14177;51.520;6.764;2023-02-03T19:44:29;102732.03;;;8.69
69785;BMP280;14177;51.520;6.764;2023-02-03T19:46:56;102738.06;;;8.68
69785;BMP280;14177;51.520;6.764;2023-02-03T19:49:23;102740.59;;;8.61
69785;BMP280;14177;51.520;6.764;2023-02-03T19:51:51;102751.91;;;8.70
69785;BMP280;14177;51.520;6.764;2023-02-03T19:54:18;102751.88;;;8.69
69785;BMP280;14177;51.520;6.764;2023-02-03T19:56:45;102752.72;;;8.68
69785;BMP280;14177;51.520;6.764;2023-02-03T19:59:12;102755.34;;;8.66
69785;BMP280;14177;51.520;6.764;2023-02-03T20:01:40;102766.53;;;8.62
69785;BMP280;14177;51.520;6.764;2023-02-03T20:04:08;102760.47;;;8.60
69785;BMP280;14177;51.520;6.764;2023-02-03T20:06:35;102768.25;;;8.63
69785;BMP280;14177;51.520;6.764;2023-02-03T20:09:02;102781.19;;;8.60
69785;BMP280;14177;51.520;6.764;2023-02-03T20:11:32;102769.94;;;8.58
69785;BMP280;14177;51.520;6.764;2023-02-03T20:13:59;102769.91;;;8.57
69785;BMP280;14177;51.520;6.764;2023-02-03T20:16:26;102771.56;;;8.47
69785;BMP280;14177;51.520;6.764;2023-02-03T20:18:53;102764.69;;;8.49
69785;BMP280;14177;51.520;6.764;2023-02-03T20:21:20;102770.69;;;8.45
69785;BMP280;14177;51.520;6.764;2023-02-03T20:23:47;102767.25;;;8.46
69785;BMP280;14177;51.520;6.764;2023-02-03T20:26:15;102769.84;;;8.46
69785;BMP280;14177;51.520;6.764;2023-02-03T20:28:42;102775.00;;;8.43
69785;BMP280;14177;51.520;6.764;2023-02-03T20:31:11;102776.66;;;8.39
69785;BMP280;14177;51.520;6.764;2023-02-03T20:33:38;102780.97;;;8.37
69785;BMP280;14177;51.520;6.764;2023-02-03T20:36:06;102780.97;;;8.35
69785;BMP280;14177;51.520;6.764;2023-02-03T20:38:35;102783.56;;;8.37
69785;BMP280;14177;51.520;6.764;2023-02-03T20:41:02;102788.69;;;8.31
69785;BMP280;14177;51.520;6.764;2023-02-03T20:43:29;102787.81;;;8.32
69785;BMP280;14177;51.520;6.764;2023-02-03T20:45:57;102787.81;;;8.32
69785;BMP280;14177;51.520;6.764;2023-02-03T20:48:25;102792.13;;;8.28
69785;BMP280;14177;51.520;6.764;2023-02-03T20:50:52;102782.66;;;8.32
69785;BMP280;14177;51.520;6.764;2023-02-03T20:53:23;102791.22;;;8.25
69785;BMP280;14177;51.520;6.764;2023-02-03T20:55:56;102794.66;;;8.24
69785;BMP280;14177;51.520;6.764;2023-02-03T20:58:27;102796.38;;;8.23
69785;BMP280;14177;51.520;6.764;2023-02-03T21:00:54;102787.72;;;8.23
69785;BMP280;14177;51.520;6.764;2023-02-03T21:03:25;102795.53;;;8.24
69785;BMP280;14177;51.520;6.764;2023-02-03T21:06:17;102803.38;;;8.30